sensor_id;sensor_type;location;lat;lon;timestamp;P1;durP1;ratioP1;P2;durP2;ratioP2
67164;SDS011;54093;50.014;19.984;2023-07-29T00:01:35;2.03;;;1.92;;
67164;SDS011;54093;50.014;19.984;2023-07-29T00:10:56;1.70;;;1.60;;
67164;SDS011;54093;50.014;19.984;2023-07-29T00:20:18;2.85;;;1.95;;
67164;SDS011;54093;50.014;19.984;2023-07-29T00:29:39;1.80;;;1.70;;
67164;SDS011;54093;50.014;19.984;2023-07-29T00:39:00;1.77;;;1.67;;
67164;SDS011;54093;50.014;19.984;2023-07-29T00:48:21;6.60;;;2.00;;
67164;SDS011;54093;50.014;19.984;2023-07-29T00:57:42;2.17;;;2.08;;
67164;SDS011;54093;50.014;19.984;2023-07-29T01:07:16;2.78;;;2.58;;
67164;SDS011;54093;50.014;19.984;2023-07-29T01:16:45;6.65;;;5.10;;
67164;SDS011;54093;50.014;19.984;2023-07-29T01:26:12;2.78;;;2.58;;
67164;SDS011;54093;50.014;19.984;2023-07-29T01:36:18;3.35;;;2.30;;
67164;SDS011;54093;50.014;19.984;2023-07-29T01:45:21;4.40;;;3.00;;
67164;SDS011;54093;50.014;19.984;2023-07-29T01:54:46;3.05;;;2.63;;
67164;SDS011;54093;50.014;19.984;2023-07-29T02:04:06;2.67;;;2.53;;
67164;SDS011;54093;50.014;19.984;2023-07-29T02:13:27;2.53;;;2.42;;
67164;SDS011;54093;50.014;19.984;2023-07-29T02:22:48;3.30;;;3.00;;
67164;SDS011;54093;50.014;19.984;2023-07-29T02:32:09;3.80;;;2.38;;
67164;SDS011;54093;50.014;19.984;2023-07-29T02:41:30;2.50;;;2.40;;
67164;SDS011;54093;50.014;19.984;2023-07-29T02:50:51;2.78;;;2.55;;
67164;SDS011;54093;50.014;19.984;2023-07-29T03:00:12;2.50;;;2.40;;
67164;SDS011;54093;50.014;19.984;2023-07-29T03:09:33;2.60;;;2.40;;
67164;SDS011;54093;50.014;19.984;2023-07-29T03:18:54;2.50;;;2.30;;
67164;SDS011;54093;50.014;19.984;2023-07-29T03:28:15;3.15;;;2.38;;
67164;SDS011;54093;50.014;19.984;2023-07-29T03:37:36;5.82;;;3.85;;
67164;SDS011;54093;50.014;19.984;2023-07-29T03:46:57;3.80;;;3.25;;
67164;SDS011;54093;50.014;19.984;2023-07-29T03:56:18;6.00;;;3.05;;
67164;SDS011;54093;50.014;19.984;2023-07-29T04:05:39;5.25;;;3.10;;
67164;SDS011;54093;50.014;19.984;2023-07-29T04:14:59;4.18;;;2.95;;
67164;SDS011;54093;50.014;19.984;2023-07-29T04:24:20;3.40;;;3.10;;
67164;SDS011;54093;50.014;19.984;2023-07-29T04:33:43;3.92;;;3.28;;
67164;SDS011;54093;50.014;19.984;2023-07-29T04:43:04;2.75;;;2.50;;
67164;SDS011;54093;50.014;19.984;2023-07-29T04:52:25;4.80;;;3.33;;
67164;SDS011;54093;50.014;19.984;2023-07-29T05:01:46;3.00;;;2.85;;
67164;SDS011;54093;50.014;19.984;2023-07-29T05:11:07;2.60;;;2.50;;
67164;SDS011;54093;50.014;19.984;2023-07-29T05:20:28;2.75;;;2.58;;
67164;SDS011;54093;50.014;19.984;2023-07-29T05:29:49;2.45;;;2.33;;
67164;SDS011;54093;50.014;19.984;2023-07-29T05:39:10;2.25;;;2.08;;
67164;SDS011;54093;50.014;19.984;2023-07-29T05:48:32;3.80;;;2.20;;
67164;SDS011;54093;50.014;19.984;2023-07-29T05:57:54;4.60;;;2.30;;
67164;SDS011;54093;50.014;19.984;2023-07-29T06:07:15;2.67;;;2.58;;
67164;SDS011;54093;50.014;19.984;2023-07-29T06:16:36;3.55;;;2.30;;
67164;SDS011;54093;50.014;19.984;2023-07-29T06:25:57;2.45;;;2.30;;
67164;SDS011;54093;50.014;19.984;2023-07-29T06:35:18;1.90;;;1.80;;
67164;SDS011;54093;50.014;19.984;2023-07-29T06:44:39;2.00;;;1.90;;
67164;SDS011;54093;50.014;19.984;2023-07-29T06:54:01;2.40;;;1.83;;
67164;SDS011;54093;50.014;19.984;2023-07-29T07:03:22;2.05;;;1.95;;
67164;SDS011;54093;50.014;19.984;2023-07-29T07:12:43;1.80;;;1.70;;
67164;SDS011;54093;50.014;19.984;2023-07-29T07:22:04;1.90;;;1.80;;
67164;SDS011;54093;50.014;19.984;2023-07-29T07:31:25;1.80;;;1.70;;
67164;SDS011;54093;50.014;19.984;2023-07-29T07:40:53;1.50;;;1.50;;
67164;SDS011;54093;50.014;19.984;2023-07-29T07:50:15;2.53;;;1.48;;
67164;SDS011;54093;50.014;19.984;2023-07-29T07:59:37;2.15;;;1.88;;
67164;SDS011;54093;50.014;19.984;2023-07-29T08:08:58;1.60;;;1.58;;
67164;SDS011;54093;50.014;19.984;2023-07-29T08:18:19;2.05;;;1.95;;
67164;SDS011;54093;50.014;19.984;2023-07-29T08:27:41;2.33;;;2.08;;
67164;SDS011;54093;50.014;19.984;2023-07-29T08:37:02;1.58;;;1.58;;
67164;SDS011;54093;50.014;19.984;2023-07-29T08:46:24;1.30;;;1.20;;
67164;SDS011;54093;50.014;19.984;2023-07-29T08:55:46;1.20;;;1.20;;
67164;SDS011;54093;50.014;19.984;2023-07-29T09:05:07;2.17;;;1.35;;
67164;SDS011;54093;50.014;19.984;2023-07-29T09:14:29;1.45;;;1.35;;
67164;SDS011;54093;50.014;19.984;2023-07-29T09:23:49;3.88;;;1.70;;
67164;SDS011;54093;50.014;19.984;2023-07-29T09:33:11;1.65;;;1.55;;
67164;SDS011;54093;50.014;19.984;2023-07-29T09:42:32;1.50;;;1.40;;
67164;SDS011;54093;50.014;19.984;2023-07-29T09:51:55;1.30;;;1.30;;
67164;SDS011;54093;50.014;19.984;2023-07-29T10:01:24;1.35;;;1.27;;
67164;SDS011;54093;50.014;19.984;2023-07-29T10:10:45;1.33;;;1.25;;
67164;SDS011;54093;50.014;19.984;2023-07-29T10:20:07;1.40;;;1.40;;
67164;SDS011;54093;50.014;19.984;2023-07-29T10:29:32;1.20;;;1.20;;
67164;SDS011;54093;50.014;19.984;2023-07-29T10:38:58;1.13;;;1.13;;
67164;SDS011;54093;50.014;19.984;2023-07-29T10:58:07;1.90;;;1.80;;
67164;SDS011;54093;50.014;19.984;2023-07-29T11:07:45;3.00;;;1.60;;
67164;SDS011;54093;50.014;19.984;2023-07-29T11:17:07;2.28;;;1.88;;
67164;SDS011;54093;50.014;19.984;2023-07-29T11:26:28;1.40;;;1.40;;
67164;SDS011;54093;50.014;19.984;2023-07-29T11:35:50;3.08;;;1.75;;
67164;SDS011;54093;50.014;19.984;2023-07-29T11:45:12;1.42;;;1.42;;
67164;SDS011;54093;50.014;19.984;2023-07-29T11:54:34;1.60;;;1.50;;
67164;SDS011;54093;50.014;19.984;2023-07-29T12:03:57;1.35;;;1.35;;
67164;SDS011;54093;50.014;19.984;2023-07-29T12:13:25;1.30;;;1.30;;
67164;SDS011;54093;50.014;19.984;2023-07-29T12:22:56;3.63;;;1.42;;
67164;SDS011;54093;50.014;19.984;2023-07-29T12:32:18;1.57;;;1.57;;
67164;SDS011;54093;50.014;19.984;2023-07-29T12:41:39;1.90;;;1.80;;
67164;SDS011;54093;50.014;19.984;2023-07-29T12:51:00;1.50;;;1.40;;
67164;SDS011;54093;50.014;19.984;2023-07-29T13:00:21;1.60;;;1.50;;
67164;SDS011;54093;50.014;19.984;2023-07-29T13:09:42;1.73;;;1.63;;
67164;SDS011;54093;50.014;19.984;2023-07-29T13:19:05;1.58;;;1.50;;
67164;SDS011;54093;50.014;19.984;2023-07-29T13:28:26;1.60;;;1.55;;
67164;SDS011;54093;50.014;19.984;2023-07-29T13:37:47;2.05;;;1.60;;
67164;SDS011;54093;50.014;19.984;2023-07-29T13:47:08;1.30;;;1.30;;
67164;SDS011;54093;50.014;19.984;2023-07-29T13:56:29;1.50;;;1.40;;
67164;SDS011;54093;50.014;19.984;2023-07-29T14:05:51;2.00;;;1.77;;
67164;SDS011;54093;50.014;19.984;2023-07-29T14:15:11;2.00;;;1.90;;
67164;SDS011;54093;50.014;19.984;2023-07-29T14:24:32;1.88;;;1.77;;
67164;SDS011;54093;50.014;19.984;2023-07-29T14:33:53;3.10;;;1.70;;
67164;SDS011;54093;50.014;19.984;2023-07-29T14:43:14;2.53;;;2.22;;
67164;SDS011;54093;50.014;19.984;2023-07-29T14:52:35;1.90;;;1.80;;
67164;SDS011;54093;50.014;19.984;2023-07-29T15:01:56;3.67;;;1.52;;
67164;SDS011;54093;50.014;19.984;2023-07-29T15:11:17;2.47;;;1.70;;
67164;SDS011;54093;50.014;19.984;2023-07-29T15:20:37;2.20;;;2.10;;
67164;SDS011;54093;50.014;19.984;2023-07-29T15:29:58;4.45;;;3.17;;
67164;SDS011;54093;50.014;19.984;2023-07-29T15:39:19;3.33;;;3.08;;
67164;SDS011;54093;50.014;19.984;2023-07-29T15:48:40;1.52;;;1.52;;
67164;SDS011;54093;50.014;19.984;2023-07-29T15:58:01;4.95;;;2.08;;
67164;SDS011;54093;50.014;19.984;2023-07-29T16:07:22;1.95;;;1.85;;
67164;SDS011;54093;50.014;19.984;2023-07-29T16:16:42;2.50;;;2.30;;
67164;SDS011;54093;50.014;19.984;2023-07-29T16:26:04;3.75;;;3.47;;
67164;SDS011;54093;50.014;19.984;2023-07-29T16:35:25;1.70;;;1.70;;
67164;SDS011;54093;50.014;19.984;2023-07-29T16:44:46;3.05;;;2.75;;
67164;SDS011;54093;50.014;19.984;2023-07-29T16:54:07;2.17;;;1.92;;
67164;SDS011;54093;50.014;19.984;2023-07-29T17:03:28;1.80;;;1.70;;
67164;SDS011;54093;50.014;19.984;2023-07-29T17:12:48;2.83;;;2.10;;
67164;SDS011;54093;50.014;19.984;2023-07-29T17:22:09;1.42;;;1.38;;
67164;SDS011;54093;50.014;19.984;2023-07-29T17:31:31;1.80;;;1.70;;
67164;SDS011;54093;50.014;19.984;2023-07-29T17:40:51;3.80;;;3.50;;
67164;SDS011;54093;50.014;19.984;2023-07-29T17:50:13;1.90;;;1.80;;
67164;SDS011;54093;50.014;19.984;2023-07-29T17:59:34;2.25;;;2.15;;
67164;SDS011;54093;50.014;19.984;2023-07-29T18:08:55;1.90;;;1.80;;
67164;SDS011;54093;50.014;19.984;2023-07-29T18:18:16;1.80;;;1.70;;
67164;SDS011;54093;50.014;19.984;2023-07-29T18:27:37;2.20;;;2.10;;
67164;SDS011;54093;50.014;19.984;2023-07-29T18:36:58;1.98;;;1.88;;
67164;SDS011;54093;50.014;19.984;2023-07-29T18:46:19;4.60;;;2.00;;
67164;SDS011;54093;50.014;19.984;2023-07-29T18:55:40;2.50;;;1.85;;
67164;SDS011;54093;50.014;19.984;2023-07-29T19:05:00;2.13;;;2.00;;
67164;SDS011;54093;50.014;19.984;2023-07-29T19:14:21;2.75;;;2.65;;
67164;SDS011;54093;50.014;19.984;2023-07-29T19:23:42;2.25;;;2.15;;
67164;SDS011;54093;50.014;19.984;2023-07-29T19:33:03;2.13;;;2.03;;
67164;SDS011;54093;50.014;19.984;2023-07-29T19:42:24;2.47;;;2.30;;
67164;SDS011;54093;50.014;19.984;2023-07-29T19:51:45;3.00;;;2.70;;
67164;SDS011;54093;50.014;19.984;2023-07-29T20:01:06;3.78;;;2.58;;
67164;SDS011;54093;50.014;19.984;2023-07-29T20:10:27;2.40;;;2.20;;
67164;SDS011;54093;50.014;19.984;2023-07-29T20:19:48;2.25;;;2.05;;
67164;SDS011;54093;50.014;19.984;2023-07-29T20:29:09;2.30;;;2.10;;
67164;SDS011;54093;50.014;19.984;2023-07-29T20:38:30;2.28;;;2.17;;
67164;SDS011;54093;50.014;19.984;2023-07-29T20:47:51;2.40;;;2.25;;
67164;SDS011;54093;50.014;19.984;2023-07-29T20:57:12;3.40;;;2.47;;
67164;SDS011;54093;50.014;19.984;2023-07-29T21:06:34;2.13;;;2.03;;
67164;SDS011;54093;50.014;19.984;2023-07-29T21:15:55;2.50;;;2.30;;
67164;SDS011;54093;50.014;19.984;2023-07-29T21:25:17;3.08;;;2.55;;
67164;SDS011;54093;50.014;19.984;2023-07-29T21:34:38;2.33;;;2.13;;
67164;SDS011;54093;50.014;19.984;2023-07-29T21:43:59;2.38;;;2.17;;
67164;SDS011;54093;50.014;19.984;2023-07-29T21:53:20;2.97;;;2.78;;
67164;SDS011;54093;50.014;19.984;2023-07-29T22:02:41;3.38;;;2.75;;
67164;SDS011;54093;50.014;19.984;2023-07-29T22:12:02;2.97;;;2.67;;
67164;SDS011;54093;50.014;19.984;2023-07-29T22:21:23;3.83;;;3.20;;
67164;SDS011;54093;50.014;19.984;2023-07-29T22:30:44;2.40;;;2.30;;
67164;SDS011;54093;50.014;19.984;2023-07-29T22:40:05;2.20;;;2.10;;
67164;SDS011;54093;50.014;19.984;2023-07-29T22:49:26;2.50;;;2.40;;
67164;SDS011;54093;50.014;19.984;2023-07-29T22:58:47;2.63;;;2.30;;
67164;SDS011;54093;50.014;19.984;2023-07-29T23:08:08;2.42;;;2.22;;
67164;SDS011;54093;50.014;19.984;2023-07-29T23:17:29;2.55;;;2.35;;
67164;SDS011;54093;50.014;19.984;2023-07-29T23:26:52;3.03;;;2.83;;
67164;SDS011;54093;50.014;19.984;2023-07-29T23:36:13;2.72;;;2.53;;
67164;SDS011;54093;50.014;19.984;2023-07-29T23:45:34;2.55;;;2.30;;
67164;SDS011;54093;50.014;19.984;2023-07-29T23:54:55;2.63;;;2.53;;
